Time;durP1;ratioP1;P1;durP2;ratioP2;P2;SDS_P1;SDS_P2;PMS_P1;PMS_P2;Temp;Humidity;BMP_temperature;BMP_pressure;BME280_temperature;BME280_humidity;BME280_pressure;Samples;Min_cycle;Max_cycle;Signal;HPM_P1;HPM_P2
2020/12/29 00:01:34;;;;;;;0.60;0.60;;;2.70;1.00;;;;;;4950682;28;20240;-75
2020/12/29 00:04:01;;;;;;;0.85;0.85;;;2.60;1.00;;;;;;4964486;28;20752;-75
2020/12/29 00:06:28;;;;;;;0.60;0.60;;;2.60;1.00;;;;;;4951453;28;20217;-73
2020/12/29 00:08:55;;;;;;;0.93;0.80;;;2.60;1.00;;;;;;4955955;28;20228;-73
2020/12/29 00:11:24;;;;;;;0.88;0.80;;;2.50;1.00;;;;;;4962826;28;20240;-74
2020/12/29 00:13:51;;;;;;;0.88;0.85;;;2.50;1.00;;;;;;4951873;28;20204;-74
2020/12/29 00:16:19;;;;;;;0.70;0.70;;;2.50;1.00;;;;;;4960932;28;20697;-76
2020/12/29 00:18:47;;;;;;;0.80;0.60;;;2.50;1.00;;;;;;4950004;28;20225;-73
2020/12/29 00:21:18;;;;;;;0.73;0.70;;;2.60;1.00;;;;;;4949642;28;20572;-74
2020/12/29 00:23:45;;;;;;;1.02;0.70;;;2.60;1.00;;;;;;4950585;28;20592;-73
2020/12/29 00:26:13;;;;;;;0.60;0.60;;;2.70;1.00;;;;;;4949696;28;20266;-75
2020/12/29 00:28:40;;;;;;;0.60;0.60;;;2.70;1.00;;;;;;4948529;28;20210;-74
2020/12/29 00:31:07;;;;;;;0.63;0.63;;;2.80;1.00;;;;;;4951235;28;20233;-74
2020/12/29 00:33:35;;;;;;;0.80;0.77;;;2.80;1.00;;;;;;4951458;28;20744;-74
2020/12/29 00:36:06;;;;;;;1.17;0.60;;;2.80;1.00;;;;;;4954103;28;20672;-74
2020/12/29 00:38:33;;;;;;;0.60;0.60;;;2.80;1.00;;;;;;4951210;28;20274;-73
2020/12/29 00:41:00;;;;;;;0.70;0.70;;;2.80;1.00;;;;;;4949076;28;20244;-75
2020/12/29 00:43:27;;;;;;;0.60;0.60;;;2.80;1.00;;;;;;4963572;28;20273;-72
2020/12/29 00:45:54;;;;;;;0.60;0.60;;;2.80;1.00;;;;;;4949666;28;20222;-74
2020/12/29 00:48:21;;;;;;;0.80;0.80;;;2.80;1.00;;;;;;4950206;28;20215;-74
2020/12/29 00:50:48;;;;;;;0.60;0.60;;;2.80;1.00;;;;;;4948616;28;20242;-74
2020/12/29 00:53:16;;;;;;;0.70;0.70;;;2.90;1.00;;;;;;4949355;28;20230;-74
2020/12/29 00:55:43;;;;;;;0.60;0.60;;;2.90;1.00;;;;;;4949220;28;20432;-74
2020/12/29 00:58:10;;;;;;;0.88;0.70;;;2.90;1.00;;;;;;4948848;28;20281;-75
2020/12/29 01:00:37;;;;;;;0.85;0.80;;;2.80;1.00;;;;;;4950219;28;20267;-74
2020/12/29 01:03:04;;;;;;;0.60;0.60;;;2.70;13.30;;;;;;4951181;28;20244;-73
2020/12/29 01:05:31;;;;;;;0.60;0.60;;;2.60;26.20;;;;;;4950084;28;20226;-73
2020/12/29 01:07:58;;;;;;;0.70;0.70;;;2.50;39.70;;;;;;4950102;28;20211;-76
2020/12/29 01:10:26;;;;;;;0.65;0.65;;;2.40;57.90;;;;;;4966503;28;20228;-73
2020/12/29 01:12:54;;;;;;;0.65;0.65;;;2.40;72.50;;;;;;4949309;28;20272;-74
2020/12/29 01:15:21;;;;;;;0.70;0.70;;;2.40;72.80;;;;;;4945795;28;20260;-73
2020/12/29 01:17:48;;;;;;;0.75;0.75;;;2.50;81.80;;;;;;4953124;28;20218;-73
2020/12/29 01:20:15;;;;;;;0.93;0.73;;;2.50;81.00;;;;;;4945486;28;20678;-72
2020/12/29 01:22:42;;;;;;;0.80;0.80;;;2.40;80.60;;;;;;4951004;28;20210;-73
2020/12/29 01:25:09;;;;;;;0.80;0.80;;;2.50;82.70;;;;;;4946460;28;20218;-73
2020/12/29 01:27:37;;;;;;;0.80;0.80;;;2.40;86.30;;;;;;4947615;28;20209;-73
2020/12/29 01:30:04;;;;;;;0.98;0.90;;;2.40;92.00;;;;;;4947335;28;20296;-73
2020/12/29 01:32:31;;;;;;;0.85;0.85;;;2.40;94.10;;;;;;4949648;28;20342;-75
2020/12/29 01:34:59;;;;;;;0.80;0.80;;;2.40;93.70;;;;;;4947475;28;20262;-76
2020/12/29 01:37:26;;;;;;;0.70;0.70;;;2.40;94.10;;;;;;4948041;28;20747;-73
2020/12/29 01:39:54;;;;;;;0.70;0.70;;;2.50;92.20;;;;;;4948409;28;20208;-75
2020/12/29 01:42:21;;;;;;;1.13;0.75;;;2.50;89.40;;;;;;4946587;28;20719;-75
2020/12/29 01:44:49;;;;;;;0.70;0.70;;;2.50;86.50;;;;;;4949189;28;20636;-74
2020/12/29 01:47:17;;;;;;;0.60;0.60;;;2.50;90.90;;;;;;4947010;28;20217;-75
2020/12/29 01:49:55;;;;;;;0.80;0.80;;;2.60;89.90;;;;;;4949044;28;20223;-74
2020/12/29 01:52:22;;;;;;;0.93;0.70;;;2.60;77.80;;;;;;4946415;28;20714;-73
2020/12/29 01:54:50;;;;;;;0.60;0.60;;;2.60;84.00;;;;;;4951990;28;20208;-74
2020/12/29 01:57:18;;;;;;;1.63;0.60;;;2.70;82.20;;;;;;4950967;28;20209;-74
2020/12/29 01:59:45;;;;;;;0.70;0.70;;;2.70;66.80;;;;;;4950673;28;20201;-75
2020/12/29 02:02:13;;;;;;;0.65;0.65;;;2.70;71.70;;;;;;4952566;28;20255;-74
2020/12/29 02:04:40;;;;;;;0.60;0.60;;;2.70;70.00;;;;;;4953293;28;20239;-74
2020/12/29 02:07:07;;;;;;;2.03;0.88;;;2.80;62.50;;;;;;4951291;28;20248;-75
2020/12/29 02:09:35;;;;;;;0.80;0.80;;;2.90;55.70;;;;;;4951607;28;20224;-74
2020/12/29 02:12:21;;;;;;;0.60;0.60;;;2.80;50.50;;;;;;4951835;28;20737;-75
2020/12/29 02:14:48;;;;;;;0.60;0.60;;;2.90;52.00;;;;;;4952680;28;20265;-75
2020/12/29 02:17:16;;;;;;;0.70;0.70;;;2.90;44.50;;;;;;4951092;28;20260;-73
2020/12/29 02:19:43;;;;;;;2.47;0.50;;;2.90;47.50;;;;;;4947340;28;20688;-75
2020/12/29 02:22:10;;;;;;;1.00;0.93;;;2.90;48.50;;;;;;4952118;28;20230;-74
2020/12/29 02:24:38;;;;;;;0.60;0.60;;;2.90;46.40;;;;;;4952414;28;20272;-74
2020/12/29 02:27:06;;;;;;;0.50;0.50;;;3.00;44.70;;;;;;4950834;28;20578;-73
2020/12/29 02:29:33;;;;;;;0.60;0.60;;;3.00;42.60;;;;;;4949965;28;20274;-75
2020/12/29 02:32:04;;;;;;;0.45;0.45;;;3.00;37.50;;;;;;4951656;28;20233;-75
2020/12/29 02:34:31;;;;;;;0.50;0.50;;;3.00;29.00;;;;;;4950303;28;20694;-74
2020/12/29 02:36:58;;;;;;;0.40;0.40;;;3.10;27.50;;;;;;4951832;28;20221;-74
2020/12/29 02:39:25;;;;;;;1.35;0.40;;;3.10;25.20;;;;;;4967034;28;20206;-74
2020/12/29 02:41:53;;;;;;;0.57;0.50;;;3.10;32.10;;;;;;4951453;28;20306;-73
2020/12/29 02:44:21;;;;;;;0.88;0.45;;;3.00;37.10;;;;;;4952419;28;20239;-73
2020/12/29 02:46:49;;;;;;;0.45;0.43;;;3.00;39.10;;;;;;4951730;28;20352;-74
2020/12/29 02:49:16;;;;;;;0.40;0.40;;;3.00;44.30;;;;;;4951046;28;20221;-74
2020/12/29 02:51:44;;;;;;;0.40;0.40;;;3.10;45.00;;;;;;4964040;28;20234;-74
2020/12/29 02:54:12;;;;;;;0.57;0.57;;;3.00;40.00;;;;;;4951709;28;20215;-74
2020/12/29 02:56:39;;;;;;;0.50;0.50;;;3.00;51.70;;;;;;4951774;28;20222;-73
2020/12/29 02:59:07;;;;;;;0.60;0.50;;;3.10;54.70;;;;;;4963755;28;20215;-74
2020/12/29 03:01:35;;;;;;;0.50;0.50;;;3.00;54.50;;;;;;4950855;28;20237;-70
2020/12/29 03:04:02;;;;;;;1.25;1.25;;;3.00;60.00;;;;;;4950893;28;20267;-74
2020/12/29 03:06:30;;;;;;;0.50;0.47;;;3.00;63.40;;;;;;4950822;28;20252;-74
2020/12/29 03:08:57;;;;;;;0.40;0.40;;;3.00;72.60;;;;;;4950671;28;20275;-74
2020/12/29 03:11:28;;;;;;;1.02;0.50;;;3.00;66.90;;;;;;4947785;28;20250;-76
2020/12/29 03:13:57;;;;;;;0.50;0.50;;;2.90;74.40;;;;;;4951549;29;20238;-73
2020/12/29 03:16:25;;;;;;;2.05;0.40;;;3.00;79.50;;;;;;4951498;28;20213;-74
2020/12/29 03:18:54;;;;;;;0.50;0.50;;;2.90;82.70;;;;;;4949103;28;20274;-76
2020/12/29 03:21:21;;;;;;;0.50;0.50;;;2.90;89.80;;;;;;4949580;28;20226;-73
2020/12/29 03:23:48;;;;;;;0.43;0.43;;;2.80;93.30;;;;;;4950316;28;20240;-73
2020/12/29 03:26:16;;;;;;;0.45;0.45;;;2.80;90.50;;;;;;4949239;28;20214;-73
2020/12/29 03:28:43;;;;;;;0.40;0.40;;;2.70;93.50;;;;;;4951286;28;20253;-75
2020/12/29 03:31:11;;;;;;;0.40;0.40;;;2.70;92.80;;;;;;4949091;28;20236;-74
2020/12/29 03:33:39;;;;;;;0.32;0.32;;;2.60;96.80;;;;;;4951097;28;20216;-73
2020/12/29 03:36:06;;;;;;;0.40;0.40;;;2.60;99.90;;;;;;4951483;28;20278;-73
2020/12/29 03:38:33;;;;;;;0.55;0.40;;;2.50;99.90;;;;;;4950705;28;20653;-75
2020/12/29 03:41:00;;;;;;;0.60;0.60;;;2.50;99.90;;;;;;4947686;28;20238;-73
2020/12/29 03:43:28;;;;;;;0.40;0.40;;;2.50;99.90;;;;;;4949068;28;20208;-73
2020/12/29 03:45:55;;;;;;;0.50;0.40;;;2.40;99.90;;;;;;4950788;28;20658;-73
2020/12/29 03:48:25;;;;;;;0.50;0.50;;;2.50;99.90;;;;;;4948276;28;20238;-73
2020/12/29 03:50:53;;;;;;;0.50;0.40;;;2.50;99.90;;;;;;4949442;28;20743;-73
2020/12/29 03:53:21;;;;;;;1.13;0.50;;;2.60;99.90;;;;;;4950203;28;20251;-73
2020/12/29 03:55:48;;;;;;;0.40;0.40;;;2.60;99.90;;;;;;4949973;28;20840;-72
2020/12/29 03:58:15;;;;;;;0.40;0.40;;;2.60;99.90;;;;;;4951103;28;20736;-73
2020/12/29 04:00:42;;;;;;;0.40;0.40;;;2.60;99.90;;;;;;4950581;28;20235;-74
2020/12/29 04:03:09;;;;;;;0.40;0.40;;;2.70;99.90;;;;;;4948173;28;20216;-73
2020/12/29 04:05:37;;;;;;;0.65;0.40;;;2.80;99.10;;;;;;4948933;28;20214;-74
2020/12/29 04:08:04;;;;;;;0.50;0.50;;;2.70;96.80;;;;;;4949365;28;20811;-76
2020/12/29 04:10:32;;;;;;;0.40;0.40;;;2.70;98.40;;;;;;4950741;28;20257;-73
2020/12/29 04:12:59;;;;;;;0.65;0.50;;;2.60;99.90;;;;;;4948323;28;20227;-73
2020/12/29 04:15:26;;;;;;;0.50;0.50;;;2.70;99.90;;;;;;4948856;28;20707;-73
2020/12/29 04:17:53;;;;;;;0.50;0.50;;;2.60;99.90;;;;;;4951992;28;20208;-75
2020/12/29 04:20:20;;;;;;;0.85;0.60;;;2.70;99.90;;;;;;4949493;28;20207;-74
2020/12/29 04:22:47;;;;;;;1.35;0.40;;;2.70;96.90;;;;;;4948842;28;20266;-73
2020/12/29 04:25:15;;;;;;;1.65;0.40;;;2.60;94.40;;;;;;4947676;28;20279;-73
2020/12/29 04:27:42;;;;;;;1.63;0.50;;;2.60;97.00;;;;;;4949026;28;20269;-73
2020/12/29 04:30:10;;;;;;;1.38;0.50;;;2.70;94.60;;;;;;4949945;28;20230;-74
2020/12/29 04:32:38;;;;;;;0.82;0.50;;;2.70;92.60;;;;;;4949325;28;20225;-74
2020/12/29 04:35:06;;;;;;;0.50;0.45;;;2.80;82.60;;;;;;4949557;28;20247;-75
2020/12/29 04:37:33;;;;;;;0.43;0.43;;;2.80;82.60;;;;;;4949026;29;20206;-75
2020/12/29 04:40:00;;;;;;;0.30;0.30;;;2.80;45.00;;;;;;4950093;28;20208;-74
2020/12/29 04:42:29;;;;;;;0.40;0.40;;;2.80;36.30;;;;;;4950247;28;20321;-72
2020/12/29 04:44:56;;;;;;;1.55;1.05;;;2.90;33.70;;;;;;4948849;28;20323;-74
2020/12/29 04:47:27;;;;;;;0.43;0.40;;;2.90;29.60;;;;;;4949088;28;20226;-73
2020/12/29 04:49:54;;;;;;;0.75;0.50;;;2.80;67.30;;;;;;4940281;29;20231;-74
2020/12/29 04:52:22;;;;;;;0.40;0.40;;;2.70;79.70;;;;;;4946451;28;20239;-74
2020/12/29 04:54:53;;;;;;;0.70;0.40;;;2.70;90.00;;;;;;4950977;28;20270;-74
2020/12/29 04:57:21;;;;;;;1.02;0.60;;;2.70;97.30;;;;;;4947594;28;20209;-72
2020/12/29 04:59:53;;;;;;;0.50;0.50;;;2.70;99.90;;;;;;4949379;28;20627;-72
2020/12/29 05:02:20;;;;;;;1.08;0.43;;;2.60;99.90;;;;;;4949469;28;20261;-73
2020/12/29 05:04:47;;;;;;;0.47;0.40;;;2.60;99.90;;;;;;4948881;28;20211;-77
2020/12/29 05:07:15;;;;;;;3.25;0.50;;;2.60;99.90;;;;;;4949041;28;20251;-72
2020/12/29 05:09:44;;;;;;;0.40;0.40;;;2.60;99.90;;;;;;4947921;28;20214;-73
2020/12/29 05:12:15;;;;;;;0.50;0.50;;;2.60;99.90;;;;;;4946253;28;20234;-73
2020/12/29 05:14:44;;;;;;;0.95;0.50;;;2.60;99.90;;;;;;4961968;28;20215;-72
2020/12/29 05:17:12;;;;;;;1.05;0.43;;;2.70;99.90;;;;;;4946733;28;20230;-74
2020/12/29 05:19:42;;;;;;;2.45;0.50;;;2.70;99.90;;;;;;4936790;28;20226;-74
2020/12/29 05:22:09;;;;;;;0.50;0.50;;;2.60;99.90;;;;;;4945994;28;20350;-73
2020/12/29 05:24:55;;;;;;;1.65;0.50;;;2.60;99.90;;;;;;4949370;28;20865;-73
2020/12/29 05:27:22;;;;;;;0.40;0.40;;;2.60;99.90;;;;;;4947430;28;20787;-75
2020/12/29 05:29:49;;;;;;;0.40;0.40;;;2.60;99.90;;;;;;4947251;28;20230;-69
2020/12/29 05:32:18;;;;;;;0.40;0.40;;;2.70;99.90;;;;;;4948068;28;20672;-73
2020/12/29 05:34:46;;;;;;;0.40;0.40;;;2.60;99.90;;;;;;4946935;28;20219;-71
2020/12/29 05:37:15;;;;;;;0.40;0.40;;;2.60;99.90;;;;;;4947155;28;20218;-72
2020/12/29 05:39:42;;;;;;;0.82;0.40;;;2.60;99.90;;;;;;4947214;28;20598;-73
2020/12/29 05:42:09;;;;;;;0.90;0.35;;;2.60;99.90;;;;;;4948317;28;20267;-72
2020/12/29 05:44:38;;;;;;;0.63;0.45;;;2.60;99.90;;;;;;4948498;28;20629;-74
2020/12/29 05:47:05;;;;;;;0.40;0.40;;;2.60;99.90;;;;;;4948613;28;20233;-72
2020/12/29 05:49:34;;;;;;;0.60;0.50;;;2.50;99.90;;;;;;4949240;28;20298;-76
2020/12/29 05:52:01;;;;;;;1.00;0.40;;;2.60;99.90;;;;;;4941393;28;20299;-74
2020/12/29 05:54:28;;;;;;;0.50;0.50;;;2.50;99.90;;;;;;4944904;28;20208;-72
2020/12/29 05:56:55;;;;;;;1.23;0.60;;;2.50;99.90;;;;;;4948799;28;20206;-73
2020/12/29 05:59:23;;;;;;;1.05;0.60;;;2.50;99.90;;;;;;4946377;28;20668;-72
2020/12/29 06:01:52;;;;;;;2.17;0.52;;;2.40;99.90;;;;;;4948859;28;20703;-71
2020/12/29 06:04:21;;;;;;;0.93;0.40;;;2.40;99.90;;;;;;4942089;28;20417;-71
2020/12/29 06:06:50;;;;;;;1.48;0.70;;;2.40;99.90;;;;;;4948031;28;20271;-71
2020/12/29 06:09:18;;;;;;;1.15;0.43;;;2.40;99.90;;;;;;4945375;29;20215;-73
2020/12/29 06:11:55;;;;;;;0.70;0.50;;;2.40;99.90;;;;;;4945596;28;20226;-72
2020/12/29 06:14:24;;;;;;;0.80;0.52;;;2.40;99.90;;;;;;4944096;28;20215;-72
2020/12/29 06:16:52;;;;;;;0.82;0.60;;;2.50;99.90;;;;;;4948673;28;20570;-72
2020/12/29 06:19:21;;;;;;;0.95;0.60;;;2.40;99.90;;;;;;4948296;28;20220;-72
2020/12/29 06:21:57;;;;;;;0.50;0.50;;;2.40;99.90;;;;;;4957931;28;20232;-71
2020/12/29 06:24:25;;;;;;;1.00;1.00;;;2.40;99.90;;;;;;4941697;28;20222;-75
2020/12/29 06:26:53;;;;;;;1.40;0.52;;;2.40;99.90;;;;;;4951458;28;20227;-72
2020/12/29 06:29:22;;;;;;;0.40;0.40;;;2.40;99.90;;;;;;4939390;28;20211;-72
2020/12/29 06:31:51;;;;;;;0.63;0.50;;;2.40;99.90;;;;;;4938198;28;20231;-72
2020/12/29 06:34:19;;;;;;;0.65;0.60;;;2.40;99.90;;;;;;4941699;28;20816;-74
2020/12/29 06:36:48;;;;;;;0.90;0.70;;;2.40;99.90;;;;;;4943619;28;20202;-72
2020/12/29 06:39:18;;;;;;;1.05;0.45;;;2.40;99.90;;;;;;4960292;28;20221;-71
2020/12/29 06:41:45;;;;;;;0.50;0.50;;;2.30;99.90;;;;;;4945957;28;20250;-74
2020/12/29 06:44:13;;;;;;;0.70;0.50;;;2.30;99.90;;;;;;4949525;28;20214;-72
2020/12/29 06:46:40;;;;;;;0.70;0.60;;;2.30;99.90;;;;;;4955024;28;20529;-75
2020/12/29 06:49:19;;;;;;;1.02;0.52;;;2.30;99.90;;;;;;4941483;28;20474;-74
2020/12/29 06:51:46;;;;;;;0.60;0.55;;;2.30;99.90;;;;;;4962427;28;20244;-71
2020/12/29 06:54:21;;;;;;;1.00;0.50;;;2.30;99.90;;;;;;4953294;28;20796;-73
2020/12/29 06:56:59;;;;;;;1.10;0.57;;;2.30;99.90;;;;;;4954071;28;20211;-73
2020/12/29 06:59:38;;;;;;;0.52;0.47;;;2.30;99.90;;;;;;4946138;28;20450;-72
2020/12/29 07:02:20;;;;;;;0.80;0.50;;;2.40;99.90;;;;;;4953637;28;20232;-72
2020/12/29 07:04:51;;;;;;;1.40;0.43;;;2.40;99.90;;;;;;4948831;28;20675;-72
2020/12/29 07:07:29;;;;;;;1.13;1.13;;;2.40;99.90;;;;;;4948768;28;20211;-74
2020/12/29 07:10:18;;;;;;;0.40;0.40;;;2.40;99.90;;;;;;4953633;28;20263;-72
2020/12/29 07:12:46;;;;;;;3.22;0.50;;;2.40;99.90;;;;;;4953566;28;20248;-72
2020/12/29 07:15:15;;;;;;;1.10;0.45;;;2.40;99.90;;;;;;4943940;28;20231;-75
2020/12/29 07:18:00;;;;;;;2.25;0.70;;;2.50;99.90;;;;;;4945891;28;20215;-72
2020/12/29 07:20:31;;;;;;;1.58;0.50;;;2.50;99.90;;;;;;4956253;28;20266;-72
2020/12/29 07:23:03;;;;;;;1.23;0.95;;;2.50;99.90;;;;;;4948017;28;20971;-76
2020/12/29 07:25:33;;;;;;;0.80;0.60;;;2.50;99.90;;;;;;4945665;28;20209;-79
2020/12/29 07:28:02;;;;;;;1.83;0.63;;;2.50;99.90;;;;;;4951112;28;20683;-72
2020/12/29 07:30:31;;;;;;;1.23;0.60;;;2.50;99.90;;;;;;4945454;28;20224;-76
2020/12/29 07:33:00;;;;;;;0.55;0.50;;;2.50;99.90;;;;;;4952783;28;20666;-81
2020/12/29 07:35:30;;;;;;;3.70;0.60;;;2.50;99.90;;;;;;4947536;28;20235;-77
2020/12/29 07:37:58;;;;;;;1.30;1.25;;;2.50;99.90;;;;;;4951393;28;20227;-77
2020/12/29 07:40:26;;;;;;;0.50;0.50;;;2.50;99.90;;;;;;4952284;28;20946;-78
2020/12/29 07:42:54;;;;;;;2.00;0.63;;;2.60;99.90;;;;;;4941024;28;20216;-79
2020/12/29 07:45:23;;;;;;;0.80;0.50;;;2.60;99.90;;;;;;4950655;28;20451;-76
2020/12/29 07:47:51;;;;;;;0.60;0.60;;;2.70;99.90;;;;;;4947797;28;20682;-79
2020/12/29 07:50:18;;;;;;;0.80;0.50;;;2.70;99.90;;;;;;4946736;28;20235;-79
2020/12/29 07:52:46;;;;;;;0.40;0.40;;;2.70;99.90;;;;;;4942746;28;20424;-79
2020/12/29 07:55:14;;;;;;;1.98;0.70;;;2.80;99.90;;;;;;4960589;28;20219;-78
2020/12/29 07:57:41;;;;;;;0.73;0.50;;;2.80;99.90;;;;;;4944251;28;20260;-79
2020/12/29 08:00:12;;;;;;;0.70;0.70;;;2.70;99.90;;;;;;4944317;28;20229;-80
2020/12/29 08:02:39;;;;;;;0.55;0.47;;;2.80;99.90;;;;;;4941898;28;20225;-79
2020/12/29 08:05:07;;;;;;;0.90;0.50;;;2.90;96.00;;;;;;4941968;28;20238;-79
2020/12/29 08:07:35;;;;;;;0.50;0.50;;;2.80;95.50;;;;;;4949355;28;20208;-78
2020/12/29 08:10:08;;;;;;;1.25;0.80;;;2.90;98.60;;;;;;4947147;28;20206;-79
2020/12/29 08:12:36;;;;;;;1.10;0.80;;;2.90;95.60;;;;;;4962989;28;20248;-78
2020/12/29 08:15:03;;;;;;;1.95;0.60;;;2.90;93.50;;;;;;4949737;28;20536;-78
2020/12/29 08:17:31;;;;;;;1.52;0.60;;;2.90;92.80;;;;;;4948217;28;20217;-78
2020/12/29 08:19:59;;;;;;;0.80;0.75;;;3.00;90.80;;;;;;4946902;28;20218;-78
2020/12/29 08:22:30;;;;;;;0.77;0.60;;;3.00;90.10;;;;;;4953076;28;20240;-78
2020/12/29 08:24:57;;;;;;;0.60;0.60;;;3.00;93.40;;;;;;4951989;28;20273;-78
2020/12/29 08:27:24;;;;;;;1.00;1.00;;;3.10;91.70;;;;;;4951195;28;20260;-81
2020/12/29 08:29:52;;;;;;;6.25;0.70;;;3.30;92.70;;;;;;4949935;28;20212;-78
2020/12/29 08:32:22;;;;;;;0.60;0.60;;;3.50;85.00;;;;;;4966225;28;20613;-78
2020/12/29 08:34:51;;;;;;;0.60;0.60;;;3.60;46.70;;;;;;4951047;28;20307;-80
2020/12/29 08:37:23;;;;;;;0.63;0.63;;;3.60;46.00;;;;;;4963962;28;20597;-79
2020/12/29 08:40:06;;;;;;;2.83;0.60;;;3.80;28.20;;;;;;4949717;28;20233;-79
2020/12/29 08:42:50;;;;;;;2.33;1.13;;;3.50;14.10;;;;;;4949299;29;20203;-77
2020/12/29 08:45:26;;;;;;;0.60;0.60;;;3.70;27.50;;;;;;4948697;28;20264;-78
2020/12/29 08:47:56;;;;;;;0.60;0.60;;;3.70;16.70;;;;;;4950766;28;20930;-77
2020/12/29 08:50:26;;;;;;;0.93;0.50;;;3.80;13.80;;;;;;4948338;28;20243;-77
2020/12/29 08:53:02;;;;;;;1.45;1.00;;;3.70;21.40;;;;;;4950588;28;20207;-78
2020/12/29 08:55:30;;;;;;;1.52;0.60;;;3.70;23.10;;;;;;4948373;28;20215;-78
2020/12/29 08:57:59;;;;;;;0.88;0.50;;;3.60;31.20;;;;;;4946631;28;20212;-77
2020/12/29 09:00:27;;;;;;;0.57;0.57;;;3.50;35.80;;;;;;4947494;28;20215;-81
2020/12/29 09:02:54;;;;;;;0.60;0.50;;;3.60;46.50;;;;;;4949284;28;20763;-78
2020/12/29 09:05:24;;;;;;;0.90;0.77;;;3.70;47.50;;;;;;4949043;28;20681;-77
2020/12/29 09:07:51;;;;;;;1.50;0.60;;;3.80;37.50;;;;;;4947440;28;20215;-80
2020/12/29 09:10:19;;;;;;;0.90;0.70;;;3.90;17.50;;;;;;4964812;28;20222;-81
2020/12/29 09:12:47;;;;;;;0.60;0.60;;;3.80;13.90;;;;;;4951153;28;20665;-79
2020/12/29 09:15:24;;;;;;;0.90;0.52;;;3.90;5.00;;;;;;4939405;28;20210;-78
2020/12/29 09:17:57;;;;;;;1.00;0.60;;;3.90;1.00;;;;;;4948045;28;20211;-80
2020/12/29 09:20:30;;;;;;;1.40;0.80;;;3.90;1.00;;;;;;4949192;28;20217;-79
2020/12/29 09:23:00;;;;;;;1.48;0.88;;;3.50;1.00;;;;;;4950186;28;20210;-78
2020/12/29 09:25:29;;;;;;;0.70;0.70;;;3.40;1.00;;;;;;4947132;29;20215;-79
2020/12/29 09:28:11;;;;;;;1.35;0.70;;;3.20;3.10;;;;;;4948579;29;20211;-78
2020/12/29 09:30:41;;;;;;;1.75;0.75;;;3.10;16.90;;;;;;4949932;28;20220;-79
2020/12/29 09:33:08;;;;;;;0.65;0.65;;;2.90;45.70;;;;;;4949766;28;20247;-79
2020/12/29 09:35:36;;;;;;;0.75;0.70;;;2.80;63.40;;;;;;4950165;28;20209;-79
2020/12/29 09:38:04;;;;;;;1.02;0.73;;;2.90;82.00;;;;;;4951340;28;20236;-79
2020/12/29 09:40:51;;;;;;;1.40;0.80;;;2.90;93.20;;;;;;4953719;28;20231;-82
2020/12/29 09:43:18;;;;;;;0.88;0.82;;;3.10;87.50;;;;;;4951219;28;20750;-79
2020/12/29 09:45:47;;;;;;;0.80;0.80;;;3.10;84.70;;;;;;4951477;28;20211;-79
2020/12/29 09:48:15;;;;;;;0.80;0.80;;;3.10;87.90;;;;;;4949432;28;20224;-80
2020/12/29 09:50:43;;;;;;;1.55;0.80;;;3.20;89.60;;;;;;4951346;28;20229;-78
2020/12/29 09:53:10;;;;;;;0.93;0.90;;;3.20;76.30;;;;;;4948824;28;20583;-79
2020/12/29 09:55:38;;;;;;;0.60;0.60;;;3.20;90.70;;;;;;4949430;28;20234;-78
2020/12/29 09:58:06;;;;;;;0.85;0.80;;;3.40;80.80;;;;;;4950393;28;20565;-79
2020/12/29 10:00:33;;;;;;;0.80;0.80;;;3.50;45.60;;;;;;4961666;28;20213;-83
2020/12/29 10:03:01;;;;;;;0.90;0.68;;;3.60;54.20;;;;;;4947734;28;20605;-80
2020/12/29 10:05:28;;;;;;;0.77;0.70;;;3.70;47.20;;;;;;4951738;28;20789;-79
2020/12/29 10:07:56;;;;;;;0.70;0.70;;;3.80;23.00;;;;;;4949081;28;20250;-80
2020/12/29 10:10:24;;;;;;;4.32;0.77;;;3.90;6.00;;;;;;4952308;28;20225;-80
2020/12/29 10:12:51;;;;;;;0.68;0.55;;;4.00;2.40;;;;;;4948486;28;20302;-80
2020/12/29 10:15:18;;;;;;;0.60;0.60;;;4.10;1.00;;;;;;4951946;28;20260;-79
2020/12/29 10:17:45;;;;;;;0.80;0.60;;;4.10;1.00;;;;;;4954273;28;20219;-78
2020/12/29 10:20:12;;;;;;;1.48;1.38;;;4.20;1.00;;;;;;4954314;28;20216;-80
2020/12/29 10:22:40;;;;;;;0.90;0.85;;;4.20;1.00;;;;;;4954751;28;20213;-81
2020/12/29 10:25:10;;;;;;;5.65;2.83;;;4.20;1.00;;;;;;4955407;28;20216;-78
2020/12/29 10:27:37;;;;;;;12.35;7.05;;;4.20;1.00;;;;;;4952543;28;20222;-80
2020/12/29 10:30:05;;;;;;;0.77;0.70;;;4.30;1.00;;;;;;4959165;28;20290;-81
2020/12/29 10:32:32;;;;;;;4.43;0.80;;;4.50;1.00;;;;;;4960172;28;20585;-78
2020/12/29 10:35:00;;;;;;;0.60;0.60;;;4.80;1.00;;;;;;4953368;28;20475;-78
2020/12/29 10:37:27;;;;;;;0.82;0.40;;;4.90;1.00;;;;;;4969688;28;20210;-78
2020/12/29 10:39:54;;;;;;;0.55;0.55;;;4.90;99.90;;;;;;4954931;28;20219;-78
2020/12/29 10:42:22;;;;;;;0.88;0.40;;;5.00;1.00;;;;;;4954854;28;20223;-80
2020/12/29 10:44:49;;;;;;;0.30;0.30;;;5.00;99.90;;;;;;4953724;28;20240;-83
2020/12/29 10:47:16;;;;;;;0.60;0.50;;;5.00;99.90;;;;;;4952056;28;20874;-77
2020/12/29 10:49:43;;;;;;;0.40;0.40;;;5.30;99.90;;;;;;4952685;28;20212;-75
2020/12/29 10:52:11;;;;;;;0.43;0.43;;;5.60;99.90;;;;;;4953297;28;20726;-79
2020/12/29 10:54:38;;;;;;;1.30;0.63;;;5.60;1.00;;;;;;4952412;28;20736;-80
2020/12/29 10:57:05;;;;;;;0.60;0.60;;;5.60;99.90;;;;;;4968953;28;20216;-78
2020/12/29 10:59:33;;;;;;;0.40;0.40;;;5.40;99.90;;;;;;4954943;28;20213;-79
2020/12/29 11:02:00;;;;;;;0.60;0.50;;;5.10;1.00;;;;;;4970091;28;20566;-79
2020/12/29 11:04:27;;;;;;;1.58;1.00;;;5.00;1.00;;;;;;4955235;28;20215;-78
2020/12/29 11:06:54;;;;;;;1.08;0.55;;;5.00;1.00;;;;;;4953508;28;20215;-79
2020/12/29 11:09:21;;;;;;;0.52;0.50;;;5.10;99.90;;;;;;4969414;28;20594;-79
2020/12/29 11:11:49;;;;;;;0.43;0.43;;;4.90;99.90;;;;;;4953631;28;20329;-81
2020/12/29 11:14:16;;;;;;;0.90;0.40;;;4.90;99.90;;;;;;4951833;29;20480;-77
2020/12/29 11:16:48;;;;;;;0.40;0.40;;;4.80;99.90;;;;;;4954225;28;20216;-80
2020/12/29 11:19:15;;;;;;;0.50;0.50;;;5.00;99.90;;;;;;4951353;28;20214;-78
2020/12/29 11:21:45;;;;;;;0.40;0.40;;;5.30;99.90;;;;;;4952613;28;20235;-77
2020/12/29 11:24:16;;;;;;;0.40;0.40;;;5.60;99.90;;;;;;4951691;28;20234;-77
2020/12/29 11:26:44;;;;;;;0.40;0.40;;;6.50;99.90;;;;;;4950208;28;20200;-76
2020/12/29 11:29:11;;;;;;;0.40;0.40;;;7.10;99.90;;;;;;4945673;29;20472;-77
2020/12/29 11:31:38;;;;;;;0.40;0.40;;;7.20;1.00;;;;;;4951177;28;20503;-81
2020/12/29 11:34:07;;;;;;;0.40;0.40;;;7.20;99.90;;;;;;4947793;28;22171;-79
2020/12/29 11:36:34;;;;;;;0.67;0.50;;;7.10;99.90;;;;;;4948353;28;20486;-75
2020/12/29 11:39:01;;;;;;;1.13;0.90;;;6.90;99.90;;;;;;4949217;28;20493;-78
2020/12/29 11:41:28;;;;;;;0.50;0.40;;;6.90;1.00;;;;;;4949048;28;20247;-78
2020/12/29 11:43:56;;;;;;;0.50;0.50;;;6.60;99.90;;;;;;4947873;28;20472;-76
2020/12/29 11:46:23;;;;;;;0.50;0.50;;;6.20;1.00;;;;;;4951745;28;20458;-77
2020/12/29 11:48:50;;;;;;;0.47;0.47;;;6.00;1.00;;;;;;4949578;28;20467;-79
2020/12/29 11:51:19;;;;;;;0.50;0.40;;;5.80;99.90;;;;;;4947488;28;20490;-76
2020/12/29 11:53:46;;;;;;;0.50;0.50;;;5.60;1.00;;;;;;4945922;28;20471;-77
2020/12/29 11:56:13;;;;;;;0.40;0.40;;;5.70;37.20;;;;;;4950176;28;21011;-77
2020/12/29 11:58:40;;;;;;;0.37;0.37;;;5.80;21.50;;;;;;4946673;28;20452;-77
2020/12/29 12:01:07;;;;;;;0.82;0.43;;;5.80;99.90;;;;;;4950684;28;20508;-77
2020/12/29 12:03:34;;;;;;;0.50;0.50;;;5.90;28.60;;;;;;4950909;28;20207;-76
2020/12/29 12:06:01;;;;;;;0.60;0.50;;;6.10;1.00;;;;;;4950266;28;20520;-77
2020/12/29 12:08:30;;;;;;;0.50;0.50;;;6.00;99.70;;;;;;4950418;28;20214;-76
2020/12/29 12:10:58;;;;;;;0.87;0.60;;;5.60;22.70;;;;;;4945361;28;20242;-76
2020/12/29 12:13:25;;;;;;;2.35;0.60;;;5.60;29.90;;;;;;4945151;28;20468;-77
2020/12/29 12:15:55;;;;;;;1.48;0.93;;;5.30;99.90;;;;;;4949735;28;20214;-77
2020/12/29 12:18:37;;;;;;;0.50;0.50;;;5.20;99.90;;;;;;4946956;28;20480;-75
2020/12/29 12:21:04;;;;;;;0.98;0.70;;;4.90;1.00;;;;;;4947134;28;20298;-76
2020/12/29 12:23:33;;;;;;;0.90;0.70;;;4.80;99.90;;;;;;4956026;28;20310;-78
2020/12/29 12:26:00;;;;;;;1.40;0.68;;;4.60;1.00;;;;;;4949371;28;20261;-76
2020/12/29 12:28:29;;;;;;;0.68;0.68;;;4.60;1.00;;;;;;4943988;28;20293;-76
2020/12/29 12:30:56;;;;;;;0.70;0.70;;;4.40;1.00;;;;;;4947328;28;20232;-77
2020/12/29 12:33:23;;;;;;;0.50;0.50;;;4.20;1.00;;;;;;4945995;28;20208;-77
2020/12/29 12:35:50;;;;;;;0.73;0.50;;;4.20;1.00;;;;;;4946496;28;20199;-78
2020/12/29 12:38:17;;;;;;;0.60;0.60;;;4.40;1.00;;;;;;4945832;28;20224;-76
2020/12/29 12:40:45;;;;;;;0.60;0.60;;;4.70;1.00;;;;;;4947626;28;20237;-79
2020/12/29 12:43:13;;;;;;;2.42;0.80;;;5.10;1.00;;;;;;4949145;28;20215;-77
2020/12/29 12:45:40;;;;;;;0.60;0.60;;;5.40;1.00;;;;;;4949012;28;20211;-76
2020/12/29 12:48:07;;;;;;;0.53;0.50;;;5.70;1.00;;;;;;4947354;29;20217;-77
2020/12/29 12:50:34;;;;;;;2.20;0.70;;;6.30;1.00;;;;;;4947802;28;20473;-76
2020/12/29 12:53:05;;;;;;;0.70;0.60;;;6.80;1.00;;;;;;4946154;28;20494;-77
2020/12/29 12:55:34;;;;;;;0.67;0.67;;;6.90;99.90;;;;;;4946870;28;20490;-79
2020/12/29 12:58:02;;;;;;;2.03;1.40;;;7.00;99.90;;;;;;4945178;29;20466;-77
2020/12/29 13:00:30;;;;;;;1.07;0.93;;;7.10;1.00;;;;;;4947118;28;20514;-77
2020/12/29 13:02:57;;;;;;;3.33;2.00;;;7.20;99.50;;;;;;4943814;28;20498;-77
2020/12/29 13:05:25;;;;;;;1.67;0.93;;;7.10;99.90;;;;;;4946651;29;20461;-75
2020/12/29 13:07:52;;;;;;;3.43;1.90;;;6.80;99.90;;;;;;4944092;28;20500;-75